Time;durP1;ratioP1;P1;durP2;ratioP2;P2;SDS_P1;SDS_P2;PMS_P1;PMS_P2;Temp;Humidity;BMP_temperature;BMP_pressure;BME280_temperature;BME280_humidity;BME280_pressure;Samples;Min_cycle;Max_cycle;Signal;HPM_P1;HPM_P2
2023/07/16 00:01:46;;;;;;;0.90;0.90;;;25.50;67.80;;;;;;5062464;28;43465;-74
2023/07/16 00:04:14;;;;;;;0.90;0.90;;;25.50;67.50;;;;;;5084276;28;43885;-74
2023/07/16 00:06:43;;;;;;;0.85;0.85;;;25.60;67.30;;;;;;5053295;28;43889;-75
2023/07/16 00:09:12;;;;;;;0.80;0.80;;;25.50;67.20;;;;;;5080535;28;43948;-75
2023/07/16 00:11:40;;;;;;;0.85;0.85;;;25.40;67.70;;;;;;5079531;28;43400;-74
2023/07/16 00:14:08;;;;;;;0.90;0.90;;;25.20;68.20;;;;;;5080655;28;43390;-74
2023/07/16 00:16:36;;;;;;;1.02;1.02;;;24.90;68.90;;;;;;5064355;28;45829;-74
2023/07/16 00:19:05;;;;;;;0.90;0.90;;;24.80;69.50;;;;;;5075449;28;43453;-75
2023/07/16 00:21:33;;;;;;;1.10;1.10;;;24.70;69.80;;;;;;5060106;28;43515;-75
2023/07/16 00:24:01;;;;;;;0.90;0.90;;;24.50;69.90;;;;;;5065532;28;43388;-75
2023/07/16 00:26:29;;;;;;;0.97;0.97;;;24.40;70.60;;;;;;5068516;28;46019;-74
2023/07/16 00:28:57;;;;;;;0.93;0.93;;;24.40;71.00;;;;;;5080595;28;43442;-74
2023/07/16 00:31:25;;;;;;;0.90;0.90;;;24.40;71.00;;;;;;5066956;28;43947;-75
2023/07/16 00:33:53;;;;;;;1.00;1.00;;;24.40;70.80;;;;;;5083484;28;43414;-74
2023/07/16 00:36:22;;;;;;;1.00;1.00;;;24.50;70.60;;;;;;5081217;28;43862;-75
2023/07/16 00:38:50;;;;;;;0.98;0.98;;;24.50;70.70;;;;;;5063648;28;44870;-74
2023/07/16 00:41:18;;;;;;;1.03;1.03;;;24.40;70.70;;;;;;5081929;28;43404;-75
2023/07/16 00:43:46;;;;;;;0.80;0.80;;;24.30;71.00;;;;;;5073710;28;43379;-75
2023/07/16 00:46:14;;;;;;;0.80;0.80;;;24.20;71.30;;;;;;5072535;28;44143;-75
2023/07/16 00:48:43;;;;;;;0.90;0.90;;;24.20;72.20;;;;;;5076314;28;43944;-75
2023/07/16 00:51:12;;;;;;;0.93;0.93;;;24.10;71.40;;;;;;5082858;28;43450;-74
2023/07/16 00:53:42;;;;;;;1.20;1.20;;;24.00;71.70;;;;;;5068911;28;44016;-74
2023/07/16 00:56:11;;;;;;;1.17;1.17;;;24.00;72.20;;;;;;5069300;28;43864;-74
2023/07/16 00:58:39;;;;;;;0.90;0.90;;;24.00;72.10;;;;;;5084945;28;43820;-74
2023/07/16 01:01:07;;;;;;;1.00;1.00;;;24.00;72.20;;;;;;5089347;28;43412;-72
2023/07/16 01:03:35;;;;;;;1.00;1.00;;;23.90;72.30;;;;;;5081205;28;43535;-72
2023/07/16 01:06:05;;;;;;;0.90;0.90;;;23.90;72.50;;;;;;5083136;28;45974;-72
2023/07/16 01:08:35;;;;;;;0.90;0.90;;;23.90;72.50;;;;;;5086528;28;44739;-72
2023/07/16 01:11:04;;;;;;;0.83;0.83;;;24.00;72.30;;;;;;5090530;28;43455;-71
2023/07/16 01:13:34;;;;;;;1.00;1.00;;;24.10;71.70;;;;;;5079996;28;43404;-72
2023/07/16 01:16:03;;;;;;;0.83;0.83;;;24.30;71.60;;;;;;5076863;28;43596;-72
2023/07/16 01:18:31;;;;;;;1.00;1.00;;;24.30;71.40;;;;;;5089395;28;43372;-71
2023/07/16 01:20:59;;;;;;;0.87;0.87;;;24.20;71.40;;;;;;5101764;28;43407;-71
2023/07/16 01:23:33;;;;;;;0.80;0.80;;;24.10;71.60;;;;;;5084519;28;43383;-71
2023/07/16 01:26:12;;;;;;;0.93;0.93;;;24.10;71.90;;;;;;5085919;28;43659;-72
2023/07/16 01:28:52;;;;;;;0.90;0.90;;;24.00;71.90;;;;;;5060567;28;45165;-72
2023/07/16 01:31:22;;;;;;;0.80;0.80;;;24.00;72.10;;;;;;5077994;28;43503;-72
2023/07/16 01:33:50;;;;;;;0.90;0.90;;;23.90;72.40;;;;;;5088760;28;44008;-72
2023/07/16 01:36:19;;;;;;;0.80;0.80;;;23.90;72.60;;;;;;5102059;28;43787;-71
2023/07/16 01:38:47;;;;;;;1.20;0.90;;;23.90;72.60;;;;;;5080378;28;44393;-71
2023/07/16 01:41:15;;;;;;;0.80;0.80;;;23.90;72.50;;;;;;5094889;28;44090;-71
2023/07/16 01:43:43;;;;;;;0.80;0.80;;;23.80;72.60;;;;;;5100564;28;43346;-72
2023/07/16 01:46:11;;;;;;;1.10;1.10;;;23.70;72.90;;;;;;5088745;28;43884;-72
2023/07/16 01:48:40;;;;;;;0.90;0.90;;;23.80;72.80;;;;;;5093149;28;43452;-72
2023/07/16 01:51:08;;;;;;;1.10;1.10;;;23.90;72.50;;;;;;5083215;28;43484;-72
2023/07/16 01:53:36;;;;;;;0.83;0.83;;;24.00;72.00;;;;;;5089726;28;43632;-72
2023/07/16 01:56:04;;;;;;;0.87;0.87;;;24.10;71.70;;;;;;5085445;28;45878;-72
2023/07/16 01:58:32;;;;;;;0.77;0.77;;;24.10;71.60;;;;;;5083292;28;44991;-72
2023/07/16 02:01:00;;;;;;;0.90;0.90;;;24.10;71.60;;;;;;5101168;28;43412;-72
2023/07/16 02:03:28;;;;;;;0.97;0.97;;;24.00;71.90;;;;;;5085450;28;43594;-72
2023/07/16 02:06:00;;;;;;;1.67;1.07;;;24.00;72.20;;;;;;5082550;28;45945;-72
2023/07/16 02:08:28;;;;;;;0.90;0.90;;;24.00;72.30;;;;;;5075134;28;44741;-72
2023/07/16 02:10:56;;;;;;;1.00;1.00;;;23.90;72.30;;;;;;5106444;28;43432;-72
2023/07/16 02:13:24;;;;;;;1.00;1.00;;;23.80;72.50;;;;;;5082756;28;43509;-72
2023/07/16 02:15:52;;;;;;;1.00;1.00;;;23.80;72.60;;;;;;5087141;28;43809;-72
2023/07/16 02:18:20;;;;;;;0.80;0.80;;;23.80;72.50;;;;;;5101030;28;43435;-72
2023/07/16 02:20:48;;;;;;;1.07;1.07;;;23.80;72.60;;;;;;5104499;28;43308;-72
2023/07/16 02:23:17;;;;;;;0.80;0.80;;;23.70;72.60;;;;;;5094956;28;43496;-72
2023/07/16 02:25:45;;;;;;;0.90;0.90;;;23.70;73.00;;;;;;5071969;28;45446;-72
2023/07/16 02:28:16;;;;;;;1.23;1.10;;;23.80;73.00;;;;;;5081175;28;44561;-72
2023/07/16 02:30:45;;;;;;;0.83;0.83;;;23.90;72.70;;;;;;5078200;28;43390;-72
2023/07/16 02:33:13;;;;;;;0.90;0.90;;;24.00;72.20;;;;;;5101861;28;43498;-72
2023/07/16 02:35:41;;;;;;;0.90;0.90;;;24.10;71.80;;;;;;5088356;28;44050;-71
2023/07/16 02:38:09;;;;;;;0.90;0.90;;;24.10;71.60;;;;;;5095673;28;43470;-73
2023/07/16 02:40:42;;;;;;;0.90;0.90;;;24.10;71.70;;;;;;5093003;28;43396;-72
2023/07/16 02:43:10;;;;;;;0.70;0.70;;;24.00;71.90;;;;;;5082066;28;43446;-72
2023/07/16 02:45:38;;;;;;;0.93;0.93;;;24.00;72.30;;;;;;5091111;28;43837;-72
2023/07/16 02:48:07;;;;;;;0.80;0.80;;;23.90;72.20;;;;;;5097300;28;43398;-72
2023/07/16 02:50:35;;;;;;;0.80;0.80;;;23.90;72.20;;;;;;5104569;28;43379;-72
2023/07/16 02:53:04;;;;;;;0.93;0.93;;;23.80;72.30;;;;;;5101145;28;43916;-72
2023/07/16 02:55:32;;;;;;;2.17;0.90;;;23.80;72.70;;;;;;5081719;28;44993;-72
2023/07/16 02:58:04;;;;;;;16.73;1.67;;;23.70;72.70;;;;;;5081946;28;43388;-72
2023/07/16 03:00:32;;;;;;;14.33;1.87;;;23.70;72.90;;;;;;5099318;28;43388;-72
2023/07/16 03:03:00;;;;;;;8.60;1.90;;;23.70;72.80;;;;;;5082268;28;43631;-72
2023/07/16 03:05:29;;;;;;;4.83;1.30;;;23.70;73.30;;;;;;5098990;28;43779;-72
2023/07/16 03:07:58;;;;;;;7.33;1.20;;;23.70;73.20;;;;;;5082615;28;44456;-72
2023/07/16 03:10:26;;;;;;;1.00;0.93;;;23.70;72.90;;;;;;5095273;28;43484;-72
2023/07/16 03:12:54;;;;;;;1.37;1.20;;;23.90;72.50;;;;;;5093215;28;47617;-72
2023/07/16 03:15:24;;;;;;;2.30;1.10;;;24.00;72.30;;;;;;5080293;28;45194;-72
2023/07/16 03:17:52;;;;;;;4.27;1.23;;;24.00;72.00;;;;;;5101885;28;43392;-72
2023/07/16 03:20:20;;;;;;;1.23;1.00;;;24.00;72.00;;;;;;5086186;28;43441;-72
2023/07/16 03:22:49;;;;;;;1.07;1.07;;;23.90;72.10;;;;;;5096912;28;43328;-72
2023/07/16 03:25:17;;;;;;;4.00;1.23;;;23.80;72.40;;;;;;5084964;28;45999;-72
2023/07/16 03:27:46;;;;;;;2.80;1.23;;;23.80;72.50;;;;;;5086643;28;43484;-72
2023/07/16 03:30:14;;;;;;;3.30;1.30;;;23.80;72.50;;;;;;5085669;28;43474;-72
2023/07/16 03:32:43;;;;;;;4.53;1.20;;;23.70;72.50;;;;;;5083727;28;43582;-72
2023/07/16 03:35:20;;;;;;;3.57;1.10;;;23.70;73.00;;;;;;5084206;28;43872;-72
2023/07/16 03:37:53;;;;;;;1.37;1.10;;;23.70;73.00;;;;;;5086759;28;44757;-71
2023/07/16 03:40:25;;;;;;;1.23;1.23;;;23.70;73.10;;;;;;5083654;28;43358;-71
2023/07/16 03:42:53;;;;;;;1.00;1.00;;;23.60;72.90;;;;;;5073509;28;43488;-72
2023/07/16 03:45:23;;;;;;;2.23;1.00;;;23.60;73.30;;;;;;5083353;28;43859;-73
2023/07/16 03:47:52;;;;;;;1.30;1.20;;;23.70;73.40;;;;;;5086482;28;44709;-72
2023/07/16 03:50:20;;;;;;;1.00;1.00;;;23.70;72.90;;;;;;5099430;28;43413;-71
2023/07/16 03:52:48;;;;;;;1.10;1.10;;;23.90;72.60;;;;;;5096839;28;44103;-73
2023/07/16 03:55:19;;;;;;;1.20;1.00;;;24.00;72.20;;;;;;5085650;28;44743;-71
2023/07/16 03:57:47;;;;;;;0.87;0.87;;;24.00;72.00;;;;;;5083249;28;44434;-72
2023/07/16 04:00:15;;;;;;;1.20;1.10;;;24.00;72.00;;;;;;5096694;28;43423;-71
2023/07/16 04:02:48;;;;;;;1.00;1.00;;;23.90;72.10;;;;;;5083251;28;43423;-71
2023/07/16 04:05:19;;;;;;;1.03;1.03;;;23.90;72.50;;;;;;5076248;28;45606;-71
2023/07/16 04:07:51;;;;;;;1.10;1.10;;;23.80;72.50;;;;;;5072243;28;45049;-72
2023/07/16 04:10:19;;;;;;;1.10;1.10;;;23.80;72.50;;;;;;5086742;28;43374;-72
2023/07/16 04:12:47;;;;;;;0.90;0.90;;;23.70;72.50;;;;;;5094269;28;43406;-72
2023/07/16 04:15:15;;;;;;;0.90;0.90;;;23.70;73.00;;;;;;5104539;28;43907;-72
2023/07/16 04:17:43;;;;;;;0.90;0.90;;;23.70;73.00;;;;;;5084983;28;43472;-72
2023/07/16 04:20:12;;;;;;;0.90;0.90;;;23.70;73.00;;;;;;5097741;28;43376;-72
2023/07/16 04:22:41;;;;;;;0.90;0.90;;;23.60;72.80;;;;;;5074006;28;43472;-72
2023/07/16 04:25:09;;;;;;;1.30;1.30;;;23.60;73.30;;;;;;5083755;28;43910;-72
2023/07/16 04:27:40;;;;;;;0.90;0.90;;;23.60;73.20;;;;;;5085151;28;44702;-72
2023/07/16 04:30:08;;;;;;;1.00;1.00;;;23.70;73.00;;;;;;5093556;28;43415;-72
2023/07/16 04:32:36;;;;;;;1.00;1.00;;;23.80;72.70;;;;;;5101713;28;43375;-72
2023/07/16 04:35:05;;;;;;;0.80;0.80;;;23.90;72.20;;;;;;5079462;28;43743;-72
2023/07/16 04:37:33;;;;;;;0.90;0.90;;;24.00;72.10;;;;;;5084383;28;44478;-72
2023/07/16 04:40:04;;;;;;;0.90;0.90;;;24.00;72.10;;;;;;5097860;28;43475;-72
2023/07/16 04:42:32;;;;;;;0.90;0.90;;;23.90;72.10;;;;;;5081658;28;43412;-72
2023/07/16 04:45:00;;;;;;;1.10;1.10;;;23.90;72.40;;;;;;5076720;28;45733;-72
2023/07/16 04:47:28;;;;;;;1.03;1.03;;;23.80;72.50;;;;;;5094260;28;43341;-72
2023/07/16 04:49:56;;;;;;;2.13;1.10;;;23.80;72.50;;;;;;5095114;28;44111;-72
2023/07/16 04:52:26;;;;;;;1.00;1.00;;;23.70;72.40;;;;;;5102095;28;43779;-72
2023/07/16 04:54:54;;;;;;;1.13;1.03;;;23.70;72.90;;;;;;5085865;28;45645;-72
2023/07/16 04:57:24;;;;;;;0.93;0.93;;;23.70;73.10;;;;;;5100557;28;43419;-72
2023/07/16 04:59:52;;;;;;;1.00;1.00;;;23.70;73.00;;;;;;5083639;28;43388;-72
2023/07/16 05:02:20;;;;;;;0.87;0.87;;;23.60;72.90;;;;;;5084644;28;43448;-72
2023/07/16 05:04:48;;;;;;;1.10;1.10;;;23.60;72.90;;;;;;5105847;28;43850;-72
2023/07/16 05:07:16;;;;;;;0.90;0.90;;;23.60;73.30;;;;;;5101164;28;43372;-72
2023/07/16 05:09:44;;;;;;;1.03;1.03;;;23.60;73.20;;;;;;5103143;28;43537;-71
2023/07/16 05:12:12;;;;;;;1.00;1.00;;;23.70;72.90;;;;;;5092092;28;43403;-72
2023/07/16 05:14:46;;;;;;;1.10;1.10;;;23.80;72.50;;;;;;5094868;28;43774;-71
2023/07/16 05:17:14;;;;;;;0.90;0.90;;;23.90;72.20;;;;;;5086721;28;45002;-72
2023/07/16 05:19:42;;;;;;;0.87;0.87;;;23.90;72.20;;;;;;5104744;28;43372;-71
2023/07/16 05:22:10;;;;;;;1.00;1.00;;;23.90;72.20;;;;;;5098728;28;43417;-72
2023/07/16 05:24:38;;;;;;;0.90;0.90;;;23.80;72.50;;;;;;5074580;28;45373;-72
2023/07/16 05:27:06;;;;;;;1.00;1.00;;;23.70;72.60;;;;;;5077976;28;44720;-71
2023/07/16 05:29:34;;;;;;;0.90;0.90;;;23.70;72.60;;;;;;5084583;28;43399;-71
2023/07/16 05:32:04;;;;;;;0.90;0.90;;;23.70;72.60;;;;;;5101521;28;43395;-71
2023/07/16 05:34:33;;;;;;;0.90;0.90;;;23.60;72.70;;;;;;5077468;28;46014;-72
2023/07/16 05:37:01;;;;;;;1.03;1.03;;;23.60;73.10;;;;;;5098892;28;43538;-72
2023/07/16 05:39:29;;;;;;;1.00;1.00;;;23.60;73.10;;;;;;5086005;28;43476;-71
2023/07/16 05:41:57;;;;;;;0.83;0.83;;;23.60;73.00;;;;;;5094852;28;43350;-72
2023/07/16 05:44:25;;;;;;;1.00;1.00;;;23.60;73.00;;;;;;5086596;28;43639;-72
2023/07/16 05:46:53;;;;;;;0.90;0.90;;;23.50;73.40;;;;;;5068858;28;44662;-72
2023/07/16 05:49:22;;;;;;;0.90;0.90;;;23.60;73.30;;;;;;5059297;28;43354;-72
2023/07/16 05:51:50;;;;;;;1.00;1.00;;;23.70;73.10;;;;;;5098053;28;43463;-72
2023/07/16 05:54:18;;;;;;;0.97;0.97;;;23.80;72.50;;;;;;5096977;28;43610;-72
2023/07/16 05:56:46;;;;;;;1.20;1.20;;;23.90;72.30;;;;;;5085701;28;43353;-72
2023/07/16 05:59:14;;;;;;;0.80;0.80;;;23.90;72.20;;;;;;5094845;28;43380;-72
2023/07/16 06:01:42;;;;;;;0.83;0.83;;;23.90;72.20;;;;;;5103170;28;43484;-72
2023/07/16 06:04:10;;;;;;;1.20;1.20;;;23.80;72.10;;;;;;5103788;28;43648;-72
2023/07/16 06:06:40;;;;;;;0.80;0.80;;;23.70;72.60;;;;;;5081263;28;44988;-72
2023/07/16 06:09:14;;;;;;;1.10;1.10;;;23.70;72.50;;;;;;5081624;27;43752;-72
2023/07/16 06:11:42;;;;;;;0.90;0.90;;;23.70;72.60;;;;;;5082579;28;43558;-72
2023/07/16 06:14:10;;;;;;;1.00;1.00;;;23.60;72.60;;;;;;5104367;28;43559;-72
2023/07/16 06:16:38;;;;;;;1.00;1.00;;;23.60;73.10;;;;;;5104093;28;43387;-72
2023/07/16 06:19:07;;;;;;;0.90;0.90;;;23.60;73.00;;;;;;5104478;28;43424;-72
2023/07/16 06:21:35;;;;;;;1.00;1.00;;;23.60;73.10;;;;;;5103561;28;44071;-72
2023/07/16 06:24:04;;;;;;;0.90;0.90;;;23.50;72.90;;;;;;5072400;28;45417;-72
2023/07/16 06:26:32;;;;;;;0.97;0.97;;;23.50;73.20;;;;;;5094798;28;43430;-72
2023/07/16 06:29:00;;;;;;;1.33;1.33;;;23.50;73.40;;;;;;5074038;28;43425;-72
2023/07/16 06:31:28;;;;;;;1.30;1.30;;;23.50;73.10;;;;;;5072694;28;43544;-71
2023/07/16 06:33:56;;;;;;;1.27;1.27;;;23.70;72.80;;;;;;5076973;28;45702;-71
2023/07/16 06:36:24;;;;;;;1.00;1.00;;;23.80;72.30;;;;;;5095887;28;43527;-71
2023/07/16 06:38:52;;;;;;;1.00;1.00;;;23.90;72.20;;;;;;5088467;28;43421;-72
2023/07/16 06:41:21;;;;;;;1.10;1.00;;;23.90;72.10;;;;;;5072328;28;43556;-71
2023/07/16 06:43:49;;;;;;;1.10;1.10;;;23.80;72.00;;;;;;5075352;28;45409;-71
2023/07/16 06:46:17;;;;;;;1.07;1.07;;;23.70;72.20;;;;;;5104784;28;43416;-71
2023/07/16 06:48:46;;;;;;;0.80;0.80;;;23.70;72.60;;;;;;5100615;28;43453;-71
2023/07/16 06:51:14;;;;;;;1.00;1.00;;;23.70;73.30;;;;;;5091987;28;43443;-72
2023/07/16 06:53:42;;;;;;;0.90;0.90;;;23.60;72.60;;;;;;5088598;28;45068;-72
2023/07/16 06:56:10;;;;;;;1.03;1.03;;;23.60;72.60;;;;;;5094125;28;43361;-71
2023/07/16 06:58:39;;;;;;;1.33;1.00;;;23.50;73.00;;;;;;5093099;28;43383;-72
2023/07/16 07:01:07;;;;;;;0.90;0.90;;;23.50;73.00;;;;;;5094808;28;43417;-71
2023/07/16 07:03:35;;;;;;;1.00;1.00;;;23.50;73.00;;;;;;5095045;28;43957;-72
2023/07/16 07:06:03;;;;;;;0.93;0.93;;;23.50;72.90;;;;;;5092827;28;43493;-71
2023/07/16 07:08:31;;;;;;;1.10;1.10;;;23.50;74.10;;;;;;5077609;28;43427;-73
2023/07/16 07:10:59;;;;;;;1.20;1.20;;;23.50;74.10;;;;;;5097384;28;43374;-73
2023/07/16 07:13:29;;;;;;;1.00;1.00;;;23.50;73.10;;;;;;5091160;28;43728;-72
2023/07/16 07:16:01;;;;;;;1.20;1.20;;;23.60;72.70;;;;;;5074565;28;44999;-72
2023/07/16 07:18:30;;;;;;;1.20;1.20;;;23.70;72.30;;;;;;5077708;28;43524;-72
2023/07/16 07:20:58;;;;;;;1.20;1.20;;;23.80;72.10;;;;;;5092076;28;43300;-72
2023/07/16 07:23:27;;;;;;;1.00;1.00;;;23.80;72.10;;;;;;5093721;28;43597;-72
2023/07/16 07:25:59;;;;;;;1.00;1.00;;;23.70;72.10;;;;;;5070511;28;44881;-72
2023/07/16 07:28:28;;;;;;;1.10;1.10;;;23.60;72.50;;;;;;5077396;28;43404;-72
2023/07/16 07:31:00;;;;;;;1.13;1.13;;;23.60;72.60;;;;;;5082614;28;43545;-72
2023/07/16 07:33:28;;;;;;;1.00;1.00;;;23.60;72.70;;;;;;5087815;28;43662;-72
2023/07/16 07:35:56;;;;;;;0.90;0.90;;;23.60;72.70;;;;;;5076487;28;43578;-72
2023/07/16 07:38:24;;;;;;;1.20;1.20;;;23.50;73.10;;;;;;5093491;28;43427;-72
2023/07/16 07:40:52;;;;;;;1.17;1.17;;;23.50;73.10;;;;;;5094041;28;43371;-72
2023/07/16 07:43:20;;;;;;;1.53;1.10;;;23.50;72.90;;;;;;5064444;28;45389;-72
2023/07/16 07:45:48;;;;;;;0.97;0.97;;;23.70;72.70;;;;;;5105278;28;43337;-72
2023/07/16 07:48:18;;;;;;;1.00;1.00;;;23.70;72.30;;;;;;5072063;28;43439;-72
2023/07/16 07:50:47;;;;;;;1.10;1.10;;;23.80;72.20;;;;;;5068051;28;43452;-72
2023/07/16 07:53:19;;;;;;;1.10;1.10;;;23.70;72.00;;;;;;5076695;28;43687;-72
2023/07/16 07:55:47;;;;;;;3.80;1.20;;;23.70;72.10;;;;;;5089000;28;43356;-71
2023/07/16 07:58:15;;;;;;;3.80;1.33;;;23.60;72.70;;;;;;5081919;28;43366;-72
2023/07/16 08:00:43;;;;;;;4.10;1.53;;;23.60;72.70;;;;;;5081944;28;43395;-72
2023/07/16 08:03:11;;;;;;;3.10;1.37;;;23.60;72.70;;;;;;5083506;28;45702;-72
2023/07/16 08:05:41;;;;;;;1.63;1.27;;;23.50;72.60;;;;;;5102642;28;43434;-72
2023/07/16 08:08:09;;;;;;;1.30;1.30;;;23.50;73.20;;;;;;5100269;28;43443;-72
2023/07/16 08:10:37;;;;;;;1.27;1.20;;;23.50;73.20;;;;;;5089341;28;43435;-72
2023/07/16 08:13:05;;;;;;;1.10;1.10;;;23.50;73.10;;;;;;5072795;28;45770;-72
2023/07/16 08:15:33;;;;;;;1.07;1.07;;;23.50;72.90;;;;;;5089301;27;43490;-72
2023/07/16 08:18:01;;;;;;;1.60;1.37;;;23.40;72.90;;;;;;5097549;28;43444;-72
2023/07/16 08:20:32;;;;;;;1.10;1.10;;;23.40;73.50;;;;;;5097378;28;43411;-72
2023/07/16 08:23:03;;;;;;;1.20;1.20;;;23.40;73.20;;;;;;5099545;28;43861;-72
2023/07/16 08:25:31;;;;;;;1.10;1.10;;;23.50;72.90;;;;;;5098654;28;43520;-72
2023/07/16 08:27:59;;;;;;;2.10;1.40;;;23.60;72.40;;;;;;5081612;28;43478;-71
2023/07/16 08:30:27;;;;;;;1.17;1.17;;;23.70;72.10;;;;;;5086840;28;43444;-72
2023/07/16 08:32:55;;;;;;;1.37;1.37;;;23.80;72.10;;;;;;5088222;28;46859;-72
2023/07/16 08:35:23;;;;;;;1.50;1.30;;;23.70;72.00;;;;;;5076322;28;43463;-72
2023/07/16 08:37:51;;;;;;;1.20;1.20;;;23.70;72.20;;;;;;5104975;28;43843;-72
2023/07/16 08:40:21;;;;;;;1.10;1.10;;;23.60;72.40;;;;;;5097686;28;43467;-72
2023/07/16 08:42:49;;;;;;;1.20;1.20;;;23.60;72.40;;;;;;5095775;28;43611;-71
2023/07/16 08:45:17;;;;;;;1.20;1.10;;;23.60;72.50;;;;;;5096793;28;43418;-71
2023/07/16 08:47:46;;;;;;;1.50;1.40;;;23.50;72.50;;;;;;5089186;28;43383;-72
2023/07/16 08:50:14;;;;;;;1.20;1.20;;;23.50;73.00;;;;;;5083862;28;43429;-71
2023/07/16 08:52:43;;;;;;;1.40;1.40;;;23.50;72.90;;;;;;5093865;28;43601;-72
2023/07/16 08:55:11;;;;;;;1.10;1.10;;;23.40;72.90;;;;;;5097114;28;43414;-71
2023/07/16 08:57:40;;;;;;;1.43;1.33;;;23.40;72.80;;;;;;5089767;28;43469;-71
2023/07/16 09:00:09;;;;;;;1.50;1.40;;;23.40;73.30;;;;;;5098133;28;43521;-72
2023/07/16 09:02:37;;;;;;;1.30;1.30;;;23.40;73.20;;;;;;5106679;28;43763;-71
2023/07/16 09:05:05;;;;;;;1.10;1.10;;;23.40;73.30;;;;;;5096523;28;43391;-72
2023/07/16 09:07:34;;;;;;;1.07;1.00;;;23.40;73.20;;;;;;5102063;28;43438;-73
2023/07/16 09:10:02;;;;;;;1.73;1.30;;;23.30;73.10;;;;;;5084869;28;44098;-73
2023/07/16 09:12:30;;;;;;;1.23;1.23;;;23.30;73.50;;;;;;5100517;28;43864;-73
2023/07/16 09:15:00;;;;;;;1.20;1.20;;;23.40;73.40;;;;;;5084539;28;44831;-73
2023/07/16 09:17:28;;;;;;;1.20;1.20;;;23.50;73.10;;;;;;5091875;28;43363;-73
2023/07/16 09:19:56;;;;;;;4.43;1.50;;;23.60;72.60;;;;;;5098967;28;43404;-72
2023/07/16 09:22:24;;;;;;;1.70;1.30;;;23.70;72.30;;;;;;5084756;28;45462;-72
2023/07/16 09:24:52;;;;;;;1.23;1.20;;;23.70;72.00;;;;;;5095659;28;43390;-72
2023/07/16 09:27:21;;;;;;;1.30;1.30;;;23.70;72.00;;;;;;5090005;28;43416;-72
2023/07/16 09:29:49;;;;;;;1.20;1.20;;;23.70;72.00;;;;;;5098138;28;43359;-72
2023/07/16 09:32:20;;;;;;;1.10;1.10;;;23.60;72.30;;;;;;5100087;28;43881;-72
2023/07/16 09:34:50;;;;;;;1.40;1.17;;;23.60;72.40;;;;;;5079705;28;44389;-72
2023/07/16 09:37:19;;;;;;;1.13;1.13;;;23.60;72.50;;;;;;5088204;28;43432;-73
2023/07/16 09:39:47;;;;;;;1.20;1.20;;;23.50;72.40;;;;;;5090335;28;43468;-72
2023/07/16 09:42:15;;;;;;;2.30;1.50;;;23.50;72.70;;;;;;5084965;28;43624;-72
2023/07/16 09:44:46;;;;;;;1.23;1.20;;;23.50;72.70;;;;;;5085096;28;43473;-72
2023/07/16 09:47:14;;;;;;;1.23;1.23;;;23.50;72.70;;;;;;5081118;28;43463;-72
2023/07/16 09:49:45;;;;;;;2.10;1.77;;;23.40;72.50;;;;;;5089124;28;43388;-70
2023/07/16 09:52:14;;;;;;;5.43;1.73;;;23.40;73.00;;;;;;5096062;28;43771;-72
2023/07/16 09:54:42;;;;;;;3.10;1.77;;;23.40;73.10;;;;;;5084057;28;43628;-72
2023/07/16 09:57:10;;;;;;;1.70;1.60;;;23.40;72.90;;;;;;5088330;28;43430;-72
2023/07/16 09:59:38;;;;;;;4.47;1.43;;;23.50;72.50;;;;;;5070308;28;43796;-72
2023/07/16 10:02:07;;;;;;;1.93;1.53;;;23.70;72.30;;;;;;5101313;28;43937;-72
2023/07/16 10:04:39;;;;;;;1.70;1.60;;;23.70;72.00;;;;;;5069924;28;44718;-72
2023/07/16 10:07:20;;;;;;;1.37;1.37;;;23.70;72.00;;;;;;5084732;28;43462;-71
2023/07/16 10:09:52;;;;;;;2.13;1.50;;;23.60;71.80;;;;;;5088385;28;43382;-71
2023/07/16 10:12:21;;;;;;;2.30;1.50;;;23.60;72.90;;;;;;5092451;28;43607;-72
2023/07/16 10:14:49;;;;;;;2.13;1.60;;;23.50;72.30;;;;;;5092964;28;43381;-72
2023/07/16 10:17:18;;;;;;;1.77;1.77;;;23.50;72.20;;;;;;5082750;28;43482;-71
2023/07/16 10:19:50;;;;;;;3.47;1.60;;;23.50;72.10;;;;;;5091983;28;43363;-72
2023/07/16 10:22:20;;;;;;;1.77;1.67;;;23.40;72.40;;;;;;5083871;28;43949;-72
2023/07/16 10:24:54;;;;;;;3.27;1.80;;;23.40;72.40;;;;;;5073285;28;44737;-72
2023/07/16 10:27:29;;;;;;;3.37;1.73;;;23.50;72.10;;;;;;5085244;28;43359;-72
2023/07/16 10:29:57;;;;;;;2.53;2.27;;;23.50;71.80;;;;;;5097102;28;43366;-72
2023/07/16 10:32:29;;;;;;;2.27;1.60;;;23.60;71.90;;;;;;5103405;28;43614;-72
2023/07/16 10:35:00;;;;;;;3.00;1.80;;;23.60;71.70;;;;;;5104694;28;43365;-72
2023/07/16 10:37:29;;;;;;;1.83;1.70;;;23.50;71.80;;;;;;5094795;28;43406;-72
2023/07/16 10:39:58;;;;;;;1.80;1.70;;;23.50;71.80;;;;;;5089437;28;43440;-72
2023/07/16 10:42:28;;;;;;;2.33;1.93;;;23.50;71.80;;;;;;5098460;28;43765;-72
2023/07/16 10:44:58;;;;;;;1.60;1.60;;;23.50;71.80;;;;;;5101942;28;43722;-72
2023/07/16 10:47:31;;;;;;;1.50;1.50;;;23.50;71.60;;;;;;5101167;28;43349;-72
2023/07/16 10:50:00;;;;;;;1.60;1.60;;;23.50;72.30;;;;;;5083077;28;43423;-72
2023/07/16 10:52:30;;;;;;;2.67;1.60;;;23.50;72.20;;;;;;5084808;28;45606;-71
2023/07/16 10:54:58;;;;;;;2.83;1.90;;;23.50;71.90;;;;;;5070254;28;43347;-71
2023/07/16 10:57:26;;;;;;;1.63;1.63;;;23.40;71.70;;;;;;5061711;28;43528;-72
2023/07/16 10:59:55;;;;;;;1.80;1.70;;;23.40;72.50;;;;;;5068938;28;43575;-72
2023/07/16 11:02:23;;;;;;;1.77;1.67;;;23.40;72.40;;;;;;5083548;28;43603;-71
2023/07/16 11:04:53;;;;;;;1.80;1.70;;;23.40;72.20;;;;;;5041777;28;44733;-72
2023/07/16 11:07:21;;;;;;;1.70;1.60;;;23.40;72.10;;;;;;5069376;28;43393;-71
2023/07/16 11:09:51;;;;;;;1.70;1.60;;;23.40;73.20;;;;;;5070933;28;43410;-72
2023/07/16 11:12:20;;;;;;;1.60;1.60;;;23.40;72.60;;;;;;5080434;28;43783;-72
2023/07/16 11:14:48;;;;;;;1.70;1.67;;;23.40;72.30;;;;;;5067335;28;43425;-72
2023/07/16 11:17:16;;;;;;;1.93;1.80;;;23.50;71.80;;;;;;5065350;28;43475;-72
2023/07/16 11:19:46;;;;;;;1.80;1.70;;;23.70;71.60;;;;;;5078521;28;43393;-71
2023/07/16 11:22:14;;;;;;;1.63;1.53;;;23.70;71.10;;;;;;5078908;28;43620;-71
2023/07/16 11:24:43;;;;;;;1.90;1.80;;;23.80;71.10;;;;;;5053530;28;44727;-71
2023/07/16 11:27:16;;;;;;;2.10;1.90;;;23.70;70.90;;;;;;5080475;28;43398;-71
2023/07/16 11:29:48;;;;;;;1.90;1.80;;;23.70;71.40;;;;;;5058904;28;43815;-72
2023/07/16 11:32:29;;;;;;;1.87;1.77;;;23.70;71.50;;;;;;5064703;28;45807;-70
2023/07/16 11:34:57;;;;;;;1.70;1.70;;;23.60;71.40;;;;;;5055038;28;44716;-70
2023/07/16 11:37:26;;;;;;;1.83;1.70;;;23.60;71.10;;;;;;5064033;28;43435;-72
2023/07/16 11:39:57;;;;;;;1.80;1.70;;;23.50;71.80;;;;;;5050679;28;43446;-72
2023/07/16 11:42:28;;;;;;;1.73;1.67;;;23.50;71.80;;;;;;5074716;28;43824;-72
2023/07/16 11:44:57;;;;;;;1.70;1.70;;;23.50;71.80;;;;;;5081577;28;43679;-72
2023/07/16 11:47:25;;;;;;;1.70;1.70;;;23.50;71.70;;;;;;5060730;28;43485;-72
2023/07/16 11:49:53;;;;;;;1.80;1.70;;;23.40;71.50;;;;;;5079307;28;43459;-72
2023/07/16 11:52:22;;;;;;;2.00;1.90;;;23.40;72.30;;;;;;5079049;28;43664;-72
2023/07/16 11:54:50;;;;;;;1.70;1.70;;;23.40;72.30;;;;;;5070441;28;43400;-72
2023/07/16 11:57:18;;;;;;;1.80;1.80;;;23.40;71.90;;;;;;5056455;28;43470;-72
2023/07/16 11:59:47;;;;;;;1.47;1.47;;;23.40;71.70;;;;;;5071908;28;43316;-72
2023/07/16 12:02:15;;;;;;;2.00;1.90;;;23.40;72.20;;;;;;5070615;28;43977;-72
2023/07/16 12:04:43;;;;;;;1.60;1.50;;;23.40;72.60;;;;;;5100188;28;43398;-72
2023/07/16 12:07:11;;;;;;;2.20;2.10;;;23.40;72.30;;;;;;5103423;28;43450;-72
2023/07/16 12:09:39;;;;;;;1.50;1.50;;;23.50;71.90;;;;;;5075627;28;43675;-72
2023/07/16 12:12:08;;;;;;;1.80;1.80;;;23.70;71.70;;;;;;5078007;28;45672;-72
2023/07/16 12:14:36;;;;;;;1.77;1.77;;;23.70;71.40;;;;;;5078507;28;43360;-72
2023/07/16 12:17:05;;;;;;;1.70;1.67;;;23.70;71.30;;;;;;5081990;28;43460;-72
2023/07/16 12:19:33;;;;;;;1.33;1.33;;;23.70;71.10;;;;;;5102227;28;43417;-71
2023/07/16 12:22:01;;;;;;;1.70;1.70;;;23.60;71.80;;;;;;5095563;28;43524;-72
2023/07/16 12:24:29;;;;;;;1.90;1.80;;;23.60;71.90;;;;;;5078748;28;44711;-72
2023/07/16 12:26:57;;;;;;;1.60;1.50;;;23.50;71.80;;;;;;5094680;28;43324;-72
2023/07/16 12:29:25;;;;;;;2.90;2.07;;;23.50;71.50;;;;;;5080798;28;44079;-72
2023/07/16 12:31:53;;;;;;;1.80;1.80;;;23.50;71.90;;;;;;5073923;28;45786;-72
2023/07/16 12:34:23;;;;;;;1.73;1.63;;;23.40;72.20;;;;;;5097183;28;43394;-72
2023/07/16 12:36:51;;;;;;;1.70;1.70;;;23.40;72.20;;;;;;5099486;28;43403;-72
2023/07/16 12:39:19;;;;;;;1.57;1.57;;;23.40;71.80;;;;;;5099955;28;43426;-72
2023/07/16 12:41:47;;;;;;;2.00;1.90;;;23.40;71.90;;;;;;5074486;28;45772;-72
2023/07/16 12:44:15;;;;;;;3.37;1.83;;;23.40;72.70;;;;;;5097771;28;43426;-72
2023/07/16 12:46:43;;;;;;;3.43;1.90;;;23.40;72.50;;;;;;5086507;28;43486;-72
2023/07/16 12:49:11;;;;;;;6.30;1.83;;;23.50;72.00;;;;;;5101223;28;43344;-71
2023/07/16 12:51:40;;;;;;;2.00;1.90;;;23.60;71.90;;;;;;5098509;28;43700;-71
2023/07/16 12:54:08;;;;;;;2.40;2.20;;;23.70;71.70;;;;;;5093948;28;43753;-72
2023/07/16 12:56:36;;;;;;;1.93;1.80;;;23.70;71.60;;;;;;5089430;28;43386;-72